sensor_id;sensor_type;location;lat;lon;timestamp;P1;durP1;ratioP1;P2;durP2;ratioP2
70216;SDS011;65567;55.684;37.570;2023-08-30T00:00:20;14.13;;;11.43;;
70216;SDS011;65567;55.684;37.570;2023-08-30T00:02:48;14.70;;;11.57;;
70216;SDS011;65567;55.684;37.570;2023-08-30T00:05:14;15.93;;;11.05;;
70216;SDS011;65567;55.684;37.570;2023-08-30T00:07:42;16.27;;;12.02;;
70216;SDS011;65567;55.684;37.570;2023-08-30T00:10:11;16.85;;;11.82;;
70216;SDS011;65567;55.684;37.570;2023-08-30T00:12:37;15.75;;;11.10;;
70216;SDS011;65567;55.684;37.570;2023-08-30T00:15:03;15.50;;;11.38;;
70216;SDS011;65567;55.684;37.570;2023-08-30T00:17:29;15.70;;;10.88;;
70216;SDS011;65567;55.684;37.570;2023-08-30T00:19:57;17.63;;;11.45;;
70216;SDS011;65567;55.684;37.570;2023-08-30T00:22:23;15.32;;;11.40;;
70216;SDS011;65567;55.684;37.570;2023-08-30T00:24:51;16.90;;;12.23;;
70216;SDS011;65567;55.684;37.570;2023-08-30T00:27:22;17.67;;;12.18;;
70216;SDS011;65567;55.684;37.570;2023-08-30T00:29:48;15.43;;;11.70;;
70216;SDS011;65567;55.684;37.570;2023-08-30T00:32:14;21.48;;;12.48;;
70216;SDS011;65567;55.684;37.570;2023-08-30T00:34:40;16.20;;;12.13;;
70216;SDS011;65567;55.684;37.570;2023-08-30T00:37:06;17.52;;;11.35;;
70216;SDS011;65567;55.684;37.570;2023-08-30T00:39:40;18.08;;;12.38;;
70216;SDS011;65567;55.684;37.570;2023-08-30T00:42:06;18.80;;;12.10;;
70216;SDS011;65567;55.684;37.570;2023-08-30T00:44:35;15.48;;;11.65;;
70216;SDS011;65567;55.684;37.570;2023-08-30T00:47:06;16.27;;;11.40;;
70216;SDS011;65567;55.684;37.570;2023-08-30T00:49:32;18.27;;;12.20;;
70216;SDS011;65567;55.684;37.570;2023-08-30T00:51:58;17.50;;;11.60;;
70216;SDS011;65567;55.684;37.570;2023-08-30T00:54:30;17.80;;;12.20;;
70216;SDS011;65567;55.684;37.570;2023-08-30T00:57:01;16.08;;;11.15;;
70216;SDS011;65567;55.684;37.570;2023-08-30T00:59:29;14.50;;;9.98;;
70216;SDS011;65567;55.684;37.570;2023-08-30T01:02:01;16.23;;;10.85;;
70216;SDS011;65567;55.684;37.570;2023-08-30T01:04:30;14.85;;;10.82;;
70216;SDS011;65567;55.684;37.570;2023-08-30T01:06:56;13.80;;;10.90;;
70216;SDS011;65567;55.684;37.570;2023-08-30T01:09:25;15.30;;;10.75;;
70216;SDS011;65567;55.684;37.570;2023-08-30T01:12:37;15.85;;;10.27;;
70216;SDS011;65567;55.684;37.570;2023-08-30T01:15:00;15.73;;;10.43;;
70216;SDS011;65567;55.684;37.570;2023-08-30T01:17:34;14.57;;;9.80;;
70216;SDS011;65567;55.684;37.570;2023-08-30T01:20:02;13.43;;;10.07;;
70216;SDS011;65567;55.684;37.570;2023-08-30T01:28:18;12.63;;;9.88;;
70216;SDS011;65567;55.684;37.570;2023-08-30T01:30:46;13.38;;;10.10;;
70216;SDS011;65567;55.684;37.570;2023-08-30T01:33:19;13.02;;;10.00;;
70216;SDS011;65567;55.684;37.570;2023-08-30T01:35:48;10.88;;;8.77;;
70216;SDS011;65567;55.684;37.570;2023-08-30T01:38:15;11.70;;;9.63;;
70216;SDS011;65567;55.684;37.570;2023-08-30T01:40:42;15.10;;;9.63;;
70216;SDS011;65567;55.684;37.570;2023-08-30T01:43:10;12.10;;;9.18;;
70216;SDS011;65567;55.684;37.570;2023-08-30T01:45:42;13.77;;;10.03;;
70216;SDS011;65567;55.684;37.570;2023-08-30T01:48:10;12.27;;;9.30;;
70216;SDS011;65567;55.684;37.570;2023-08-30T01:50:38;12.65;;;8.93;;
70216;SDS011;65567;55.684;37.570;2023-08-30T01:53:06;12.75;;;9.60;;
70216;SDS011;65567;55.684;37.570;2023-08-30T01:55:34;13.68;;;10.05;;
70216;SDS011;65567;55.684;37.570;2023-08-30T01:58:03;13.00;;;9.45;;
70216;SDS011;65567;55.684;37.570;2023-08-30T02:00:31;15.90;;;9.25;;
70216;SDS011;65567;55.684;37.570;2023-08-30T02:02:57;13.35;;;9.68;;
70216;SDS011;65567;55.684;37.570;2023-08-30T02:05:23;13.50;;;9.80;;
70216;SDS011;65567;55.684;37.570;2023-08-30T02:08:09;13.13;;;9.90;;
70216;SDS011;65567;55.684;37.570;2023-08-30T02:10:44;14.00;;;9.32;;
70216;SDS011;65567;55.684;37.570;2023-08-30T02:13:16;12.27;;;9.98;;
70216;SDS011;65567;55.684;37.570;2023-08-30T02:18:15;13.88;;;9.60;;
70216;SDS011;65567;55.684;37.570;2023-08-30T02:20:41;13.05;;;9.95;;
70216;SDS011;65567;55.684;37.570;2023-08-30T02:23:09;12.98;;;10.30;;
70216;SDS011;65567;55.684;37.570;2023-08-30T02:28:06;13.57;;;9.70;;
70216;SDS011;65567;55.684;37.570;2023-08-30T02:30:32;15.48;;;10.95;;
70216;SDS011;65567;55.684;37.570;2023-08-30T02:32:57;14.70;;;10.90;;
70216;SDS011;65567;55.684;37.570;2023-08-30T02:35:23;15.00;;;10.52;;
70216;SDS011;65567;55.684;37.570;2023-08-30T02:37:48;14.15;;;10.73;;
70216;SDS011;65567;55.684;37.570;2023-08-30T02:40:22;13.25;;;10.57;;
70216;SDS011;65567;55.684;37.570;2023-08-30T02:42:48;13.82;;;10.77;;
70216;SDS011;65567;55.684;37.570;2023-08-30T02:45:19;14.15;;;11.13;;
70216;SDS011;65567;55.684;37.570;2023-08-30T02:47:44;15.18;;;12.20;;
70216;SDS011;65567;55.684;37.570;2023-08-30T02:50:11;16.92;;;12.48;;
70216;SDS011;65567;55.684;37.570;2023-08-30T02:52:36;16.77;;;12.10;;
70216;SDS011;65567;55.684;37.570;2023-08-30T02:55:05;16.38;;;12.02;;
70216;SDS011;65567;55.684;37.570;2023-08-30T02:57:31;17.67;;;12.70;;
70216;SDS011;65567;55.684;37.570;2023-08-30T02:59:57;15.85;;;11.57;;
70216;SDS011;65567;55.684;37.570;2023-08-30T03:02:23;15.10;;;11.38;;
70216;SDS011;65567;55.684;37.570;2023-08-30T03:04:48;16.45;;;12.02;;
70216;SDS011;65567;55.684;37.570;2023-08-30T03:07:14;15.90;;;12.05;;
70216;SDS011;65567;55.684;37.570;2023-08-30T03:09:51;14.60;;;10.80;;
70216;SDS011;65567;55.684;37.570;2023-08-30T03:12:18;15.25;;;11.68;;
70216;SDS011;65567;55.684;37.570;2023-08-30T03:14:45;16.27;;;12.25;;
70216;SDS011;65567;55.684;37.570;2023-08-30T03:17:11;16.98;;;12.48;;
70216;SDS011;65567;55.684;37.570;2023-08-30T03:19:37;15.15;;;11.25;;
70216;SDS011;65567;55.684;37.570;2023-08-30T03:22:03;16.65;;;12.10;;
70216;SDS011;65567;55.684;37.570;2023-08-30T03:24:31;14.77;;;10.73;;
70216;SDS011;65567;55.684;37.570;2023-08-30T03:26:57;12.55;;;10.57;;
70216;SDS011;65567;55.684;37.570;2023-08-30T03:29:25;14.63;;;10.57;;
70216;SDS011;65567;55.684;37.570;2023-08-30T03:31:51;13.50;;;11.27;;
70216;SDS011;65567;55.684;37.570;2023-08-30T03:34:17;14.73;;;11.32;;
70216;SDS011;65567;55.684;37.570;2023-08-30T03:36:46;13.07;;;10.07;;
70216;SDS011;65567;55.684;37.570;2023-08-30T03:39:23;14.95;;;11.15;;
70216;SDS011;65567;55.684;37.570;2023-08-30T03:41:49;12.55;;;10.30;;
70216;SDS011;65567;55.684;37.570;2023-08-30T03:44:18;12.50;;;10.20;;
70216;SDS011;65567;55.684;37.570;2023-08-30T03:46:43;12.55;;;9.82;;
70216;SDS011;65567;55.684;37.570;2023-08-30T03:49:09;13.35;;;9.85;;
70216;SDS011;65567;55.684;37.570;2023-08-30T03:51:35;13.02;;;10.90;;
70216;SDS011;65567;55.684;37.570;2023-08-30T03:54:01;11.88;;;9.57;;
70216;SDS011;65567;55.684;37.570;2023-08-30T03:56:36;14.05;;;11.10;;
70216;SDS011;65567;55.684;37.570;2023-08-30T03:59:04;12.43;;;9.25;;
70216;SDS011;65567;55.684;37.570;2023-08-30T04:01:30;13.75;;;10.57;;
70216;SDS011;65567;55.684;37.570;2023-08-30T04:03:56;13.35;;;10.05;;
70216;SDS011;65567;55.684;37.570;2023-08-30T04:06:21;13.43;;;9.30;;
70216;SDS011;65567;55.684;37.570;2023-08-30T04:08:48;12.38;;;9.65;;
70216;SDS011;65567;55.684;37.570;2023-08-30T04:11:16;13.98;;;9.48;;
70216;SDS011;65567;55.684;37.570;2023-08-30T04:13:41;10.95;;;9.40;;
70216;SDS011;65567;55.684;37.570;2023-08-30T04:16:07;16.85;;;9.65;;
70216;SDS011;65567;55.684;37.570;2023-08-30T04:18:33;12.90;;;8.40;;
70216;SDS011;65567;55.684;37.570;2023-08-30T04:20:59;12.32;;;8.52;;
70216;SDS011;65567;55.684;37.570;2023-08-30T04:23:30;12.88;;;8.50;;
70216;SDS011;65567;55.684;37.570;2023-08-30T04:25:55;12.13;;;8.13;;
70216;SDS011;65567;55.684;37.570;2023-08-30T04:28:22;9.38;;;6.75;;
70216;SDS011;65567;55.684;37.570;2023-08-30T04:30:47;11.00;;;7.07;;
70216;SDS011;65567;55.684;37.570;2023-08-30T04:33:15;9.20;;;6.25;;
70216;SDS011;65567;55.684;37.570;2023-08-30T04:35:43;8.88;;;5.90;;
70216;SDS011;65567;55.684;37.570;2023-08-30T04:38:12;8.35;;;6.07;;
70216;SDS011;65567;55.684;37.570;2023-08-30T04:40:37;8.10;;;5.30;;
70216;SDS011;65567;55.684;37.570;2023-08-30T04:43:03;8.73;;;5.82;;
70216;SDS011;65567;55.684;37.570;2023-08-30T04:45:31;8.00;;;5.80;;
70216;SDS011;65567;55.684;37.570;2023-08-30T04:47:57;8.75;;;5.25;;
70216;SDS011;65567;55.684;37.570;2023-08-30T04:50:23;9.82;;;5.85;;
70216;SDS011;65567;55.684;37.570;2023-08-30T04:52:49;8.10;;;4.65;;
70216;SDS011;65567;55.684;37.570;2023-08-30T04:55:20;7.15;;;4.93;;
70216;SDS011;65567;55.684;37.570;2023-08-30T04:57:45;7.22;;;5.68;;
70216;SDS011;65567;55.684;37.570;2023-08-30T05:00:13;7.50;;;5.70;;
70216;SDS011;65567;55.684;37.570;2023-08-30T05:02:42;6.80;;;5.05;;
70216;SDS011;65567;55.684;37.570;2023-08-30T05:05:09;7.10;;;5.43;;
70216;SDS011;65567;55.684;37.570;2023-08-30T05:07:35;10.68;;;6.03;;
70216;SDS011;65567;55.684;37.570;2023-08-30T05:10:00;7.18;;;5.55;;
70216;SDS011;65567;55.684;37.570;2023-08-30T05:12:26;9.00;;;5.53;;
70216;SDS011;65567;55.684;37.570;2023-08-30T05:14:52;7.10;;;5.55;;
70216;SDS011;65567;55.684;37.570;2023-08-30T05:17:20;7.28;;;5.10;;
70216;SDS011;65567;55.684;37.570;2023-08-30T05:19:46;10.98;;;5.53;;
70216;SDS011;65567;55.684;37.570;2023-08-30T05:22:11;6.28;;;4.57;;
70216;SDS011;65567;55.684;37.570;2023-08-30T05:24:39;8.65;;;4.90;;
70216;SDS011;65567;55.684;37.570;2023-08-30T05:27:05;9.15;;;5.05;;
70216;SDS011;65567;55.684;37.570;2023-08-30T05:29:33;8.40;;;4.80;;
70216;SDS011;65567;55.684;37.570;2023-08-30T05:31:59;7.32;;;5.03;;
70216;SDS011;65567;55.684;37.570;2023-08-30T05:34:24;7.60;;;4.78;;
70216;SDS011;65567;55.684;37.570;2023-08-30T05:36:52;7.32;;;4.55;;
70216;SDS011;65567;55.684;37.570;2023-08-30T05:39:18;8.45;;;4.97;;
70216;SDS011;65567;55.684;37.570;2023-08-30T05:41:44;9.20;;;5.05;;
70216;SDS011;65567;55.684;37.570;2023-08-30T05:44:12;8.10;;;5.50;;
70216;SDS011;65567;55.684;37.570;2023-08-30T05:46:37;9.77;;;5.20;;
70216;SDS011;65567;55.684;37.570;2023-08-30T05:49:06;8.65;;;5.90;;
70216;SDS011;65567;55.684;37.570;2023-08-30T05:51:37;7.75;;;5.72;;
70216;SDS011;65567;55.684;37.570;2023-08-30T05:54:02;6.93;;;5.45;;
70216;SDS011;65567;55.684;37.570;2023-08-30T05:56:31;6.80;;;4.93;;
70216;SDS011;65567;55.684;37.570;2023-08-30T05:58:57;5.78;;;4.93;;
70216;SDS011;65567;55.684;37.570;2023-08-30T06:01:25;7.82;;;5.22;;
70216;SDS011;65567;55.684;37.570;2023-08-30T06:03:54;8.80;;;5.35;;
70216;SDS011;65567;55.684;37.570;2023-08-30T06:06:19;7.50;;;4.95;;
70216;SDS011;65567;55.684;37.570;2023-08-30T06:11:15;5.95;;;4.55;;
70216;SDS011;65567;55.684;37.570;2023-08-30T06:13:41;8.27;;;4.70;;
70216;SDS011;65567;55.684;37.570;2023-08-30T06:16:06;7.63;;;4.78;;
70216;SDS011;65567;55.684;37.570;2023-08-30T06:18:32;6.63;;;5.00;;
70216;SDS011;65567;55.684;37.570;2023-08-30T06:21:00;6.45;;;4.32;;
70216;SDS011;65567;55.684;37.570;2023-08-30T06:23:27;9.63;;;5.00;;
70216;SDS011;65567;55.684;37.570;2023-08-30T06:25:53;7.07;;;4.30;;
70216;SDS011;65567;55.684;37.570;2023-08-30T06:28:19;6.30;;;4.40;;
70216;SDS011;65567;55.684;37.570;2023-08-30T06:30:45;7.38;;;4.00;;
70216;SDS011;65567;55.684;37.570;2023-08-30T06:33:16;7.82;;;4.30;;
70216;SDS011;65567;55.684;37.570;2023-08-30T06:35:42;6.97;;;4.10;;
70216;SDS011;65567;55.684;37.570;2023-08-30T06:38:10;7.55;;;4.15;;
70216;SDS011;65567;55.684;37.570;2023-08-30T06:40:43;6.45;;;4.35;;
70216;SDS011;65567;55.684;37.570;2023-08-30T06:43:14;6.90;;;5.10;;
70216;SDS011;65567;55.684;37.570;2023-08-30T06:45:42;6.93;;;4.47;;
70216;SDS011;65567;55.684;37.570;2023-08-30T06:48:08;7.28;;;4.40;;
70216;SDS011;65567;55.684;37.570;2023-08-30T06:50:34;5.63;;;4.00;;
70216;SDS011;65567;55.684;37.570;2023-08-30T06:53:07;5.93;;;4.07;;
70216;SDS011;65567;55.684;37.570;2023-08-30T06:55:34;8.23;;;4.50;;
70216;SDS011;65567;55.684;37.570;2023-08-30T06:58:05;5.72;;;3.80;;
70216;SDS011;65567;55.684;37.570;2023-08-30T07:00:33;6.00;;;4.18;;
70216;SDS011;65567;55.684;37.570;2023-08-30T07:03:02;8.38;;;4.38;;
70216;SDS011;65567;55.684;37.570;2023-08-30T07:05:28;6.03;;;4.30;;
70216;SDS011;65567;55.684;37.570;2023-08-30T07:07:56;8.05;;;3.70;;
70216;SDS011;65567;55.684;37.570;2023-08-30T07:10:22;6.47;;;3.97;;
70216;SDS011;65567;55.684;37.570;2023-08-30T07:12:48;6.75;;;4.20;;
70216;SDS011;65567;55.684;37.570;2023-08-30T07:15:14;6.05;;;3.83;;
70216;SDS011;65567;55.684;37.570;2023-08-30T07:17:42;4.47;;;3.65;;
70216;SDS011;65567;55.684;37.570;2023-08-30T07:20:11;7.25;;;4.22;;
70216;SDS011;65567;55.684;37.570;2023-08-30T07:22:42;4.45;;;3.15;;
70216;SDS011;65567;55.684;37.570;2023-08-30T07:25:07;7.22;;;4.45;;
70216;SDS011;65567;55.684;37.570;2023-08-30T07:27:35;7.03;;;4.35;;
70216;SDS011;65567;55.684;37.570;2023-08-30T07:30:01;11.60;;;4.32;;
70216;SDS011;65567;55.684;37.570;2023-08-30T07:32:29;5.47;;;3.92;;
70216;SDS011;65567;55.684;37.570;2023-08-30T07:34:57;7.18;;;3.80;;
70216;SDS011;65567;55.684;37.570;2023-08-30T07:37:23;6.72;;;4.68;;
70216;SDS011;65567;55.684;37.570;2023-08-30T07:39:52;6.93;;;3.47;;
70216;SDS011;65567;55.684;37.570;2023-08-30T07:42:19;5.43;;;4.15;;
70216;SDS011;65567;55.684;37.570;2023-08-30T07:44:44;6.25;;;4.10;;
70216;SDS011;65567;55.684;37.570;2023-08-30T07:47:12;6.90;;;3.65;;
70216;SDS011;65567;55.684;37.570;2023-08-30T07:49:38;9.13;;;4.60;;
70216;SDS011;65567;55.684;37.570;2023-08-30T07:52:07;5.15;;;3.50;;
70216;SDS011;65567;55.684;37.570;2023-08-30T07:54:36;5.38;;;3.72;;
70216;SDS011;65567;55.684;37.570;2023-08-30T07:57:03;7.28;;;3.80;;
70216;SDS011;65567;55.684;37.570;2023-08-30T07:59:29;8.02;;;4.50;;
70216;SDS011;65567;55.684;37.570;2023-08-30T08:01:55;7.63;;;4.20;;
70216;SDS011;65567;55.684;37.570;2023-08-30T08:04:23;5.50;;;3.90;;
70216;SDS011;65567;55.684;37.570;2023-08-30T08:06:54;7.72;;;4.13;;
70216;SDS011;65567;55.684;37.570;2023-08-30T08:09:22;8.82;;;4.95;;
70216;SDS011;65567;55.684;37.570;2023-08-30T08:11:48;7.90;;;4.35;;
70216;SDS011;65567;55.684;37.570;2023-08-30T08:14:15;6.55;;;3.83;;
70216;SDS011;65567;55.684;37.570;2023-08-30T08:16:43;5.72;;;4.28;;
70216;SDS011;65567;55.684;37.570;2023-08-30T08:19:09;8.18;;;4.15;;
70216;SDS011;65567;55.684;37.570;2023-08-30T08:21:37;7.93;;;3.67;;
70216;SDS011;65567;55.684;37.570;2023-08-30T08:24:03;8.98;;;4.32;;
70216;SDS011;65567;55.684;37.570;2023-08-30T08:26:29;6.65;;;3.83;;
70216;SDS011;65567;55.684;37.570;2023-08-30T08:28:55;10.43;;;4.75;;
70216;SDS011;65567;55.684;37.570;2023-08-30T08:31:21;7.43;;;4.63;;
70216;SDS011;65567;55.684;37.570;2023-08-30T08:33:50;6.93;;;4.22;;
70216;SDS011;65567;55.684;37.570;2023-08-30T08:36:19;8.30;;;3.78;;
70216;SDS011;65567;55.684;37.570;2023-08-30T08:38:53;8.82;;;4.18;;
70216;SDS011;65567;55.684;37.570;2023-08-30T08:41:19;8.15;;;4.20;;
70216;SDS011;65567;55.684;37.570;2023-08-30T08:43:45;6.20;;;4.53;;
70216;SDS011;65567;55.684;37.570;2023-08-30T08:46:12;6.68;;;4.43;;
70216;SDS011;65567;55.684;37.570;2023-08-30T08:48:39;9.23;;;4.53;;
70216;SDS011;65567;55.684;37.570;2023-08-30T08:51:06;6.40;;;4.32;;
70216;SDS011;65567;55.684;37.570;2023-08-30T08:53:32;7.22;;;4.18;;
70216;SDS011;65567;55.684;37.570;2023-08-30T08:55:58;5.88;;;4.43;;
70216;SDS011;65567;55.684;37.570;2023-08-30T08:58:25;8.40;;;4.80;;
70216;SDS011;65567;55.684;37.570;2023-08-30T09:00:52;5.55;;;4.45;;
70216;SDS011;65567;55.684;37.570;2023-08-30T09:03:19;6.28;;;4.13;;
70216;SDS011;65567;55.684;37.570;2023-08-30T09:05:47;6.13;;;3.72;;
70216;SDS011;65567;55.684;37.570;2023-08-30T09:08:14;8.23;;;4.43;;
70216;SDS011;65567;55.684;37.570;2023-08-30T09:10:42;7.20;;;4.30;;
70216;SDS011;65567;55.684;37.570;2023-08-30T09:13:08;8.02;;;4.20;;
70216;SDS011;65567;55.684;37.570;2023-08-30T09:15:34;6.57;;;4.10;;
70216;SDS011;65567;55.684;37.570;2023-08-30T09:18:03;6.43;;;4.50;;
70216;SDS011;65567;55.684;37.570;2023-08-30T09:20:29;7.43;;;4.63;;
70216;SDS011;65567;55.684;37.570;2023-08-30T09:22:55;7.35;;;4.28;;
70216;SDS011;65567;55.684;37.570;2023-08-30T09:25:24;6.75;;;3.90;;
70216;SDS011;65567;55.684;37.570;2023-08-30T09:27:56;7.60;;;4.13;;
70216;SDS011;65567;55.684;37.570;2023-08-30T09:30:24;8.52;;;4.78;;
70216;SDS011;65567;55.684;37.570;2023-08-30T09:32:50;6.43;;;4.18;;
70216;SDS011;65567;55.684;37.570;2023-08-30T09:35:16;6.20;;;4.60;;
70216;SDS011;65567;55.684;37.570;2023-08-30T09:37:44;11.52;;;4.45;;
70216;SDS011;65567;55.684;37.570;2023-08-30T09:40:10;10.27;;;4.88;;
70216;SDS011;65567;55.684;37.570;2023-08-30T09:42:42;11.15;;;4.07;;
70216;SDS011;65567;55.684;37.570;2023-08-30T09:45:17;8.00;;;4.47;;
70216;SDS011;65567;55.684;37.570;2023-08-30T09:47:49;7.20;;;3.63;;
70216;SDS011;65567;55.684;37.570;2023-08-30T09:50:19;10.80;;;4.32;;
70216;SDS011;65567;55.684;37.570;2023-08-30T09:52:49;8.25;;;4.32;;
70216;SDS011;65567;55.684;37.570;2023-08-30T09:55:16;6.38;;;4.53;;
70216;SDS011;65567;55.684;37.570;2023-08-30T09:57:43;8.10;;;4.63;;
70216;SDS011;65567;55.684;37.570;2023-08-30T10:00:10;7.47;;;4.03;;
70216;SDS011;65567;55.684;37.570;2023-08-30T10:02:42;9.80;;;4.63;;
70216;SDS011;65567;55.684;37.570;2023-08-30T10:05:12;6.18;;;4.15;;
70216;SDS011;65567;55.684;37.570;2023-08-30T10:07:38;8.63;;;3.85;;
70216;SDS011;65567;55.684;37.570;2023-08-30T10:10:04;6.82;;;3.97;;
70216;SDS011;65567;55.684;37.570;2023-08-30T10:12:34;7.38;;;3.80;;
70216;SDS011;65567;55.684;37.570;2023-08-30T10:14:59;5.35;;;3.45;;
70216;SDS011;65567;55.684;37.570;2023-08-30T10:17:27;6.45;;;4.03;;
70216;SDS011;65567;55.684;37.570;2023-08-30T10:19:54;5.60;;;3.28;;
70216;SDS011;65567;55.684;37.570;2023-08-30T10:22:21;7.95;;;4.10;;
70216;SDS011;65567;55.684;37.570;2023-08-30T10:24:56;5.88;;;4.00;;
70216;SDS011;65567;55.684;37.570;2023-08-30T10:27:27;7.15;;;4.43;;
70216;SDS011;65567;55.684;37.570;2023-08-30T10:29:57;6.25;;;4.05;;
70216;SDS011;65567;55.684;37.570;2023-08-30T10:32:27;8.10;;;4.53;;
70216;SDS011;65567;55.684;37.570;2023-08-30T10:34:53;7.55;;;3.70;;
70216;SDS011;65567;55.684;37.570;2023-08-30T10:37:26;5.40;;;4.00;;
70216;SDS011;65567;55.684;37.570;2023-08-30T10:39:59;5.50;;;3.72;;
70216;SDS011;65567;55.684;37.570;2023-08-30T10:42:28;4.57;;;3.28;;
70216;SDS011;65567;55.684;37.570;2023-08-30T10:47:28;5.20;;;4.22;;
70216;SDS011;65567;55.684;37.570;2023-08-30T10:49:56;8.20;;;3.53;;
70216;SDS011;65567;55.684;37.570;2023-08-30T10:52:23;5.97;;;3.92;;
70216;SDS011;65567;55.684;37.570;2023-08-30T10:54:50;7.50;;;3.60;;
70216;SDS011;65567;55.684;37.570;2023-08-30T10:57:24;4.65;;;3.50;;
70216;SDS011;65567;55.684;37.570;2023-08-30T11:02:35;9.88;;;3.35;;
70216;SDS011;65567;55.684;37.570;2023-08-30T11:05:02;7.28;;;3.85;;
70216;SDS011;65567;55.684;37.570;2023-08-30T11:07:31;5.97;;;3.40;;
70216;SDS011;65567;55.684;37.570;2023-08-30T11:09:57;7.78;;;3.80;;
70216;SDS011;65567;55.684;37.570;2023-08-30T11:12:23;6.40;;;3.33;;
70216;SDS011;65567;55.684;37.570;2023-08-30T11:14:54;5.72;;;3.85;;
70216;SDS011;65567;55.684;37.570;2023-08-30T11:17:20;5.28;;;4.25;;
70216;SDS011;65567;55.684;37.570;2023-08-30T11:19:50;7.55;;;4.20;;
70216;SDS011;65567;55.684;37.570;2023-08-30T11:22:22;8.68;;;5.00;;
70216;SDS011;65567;55.684;37.570;2023-08-30T11:24:49;7.03;;;4.13;;
70216;SDS011;65567;55.684;37.570;2023-08-30T11:27:17;6.88;;;4.60;;
70216;SDS011;65567;55.684;37.570;2023-08-30T11:29:43;8.48;;;4.18;;
70216;SDS011;65567;55.684;37.570;2023-08-30T11:32:09;6.57;;;4.00;;
70216;SDS011;65567;55.684;37.570;2023-08-30T11:34:34;8.18;;;3.72;;
70216;SDS011;65567;55.684;37.570;2023-08-30T11:37:00;7.85;;;3.85;;
70216;SDS011;65567;55.684;37.570;2023-08-30T11:39:28;9.35;;;3.85;;
70216;SDS011;65567;55.684;37.570;2023-08-30T11:41:56;8.23;;;3.92;;
70216;SDS011;65567;55.684;37.570;2023-08-30T11:44:28;10.27;;;4.85;;
70216;SDS011;65567;55.684;37.570;2023-08-30T11:46:57;8.13;;;4.43;;
70216;SDS011;65567;55.684;37.570;2023-08-30T11:49:29;10.52;;;4.80;;
70216;SDS011;65567;55.684;37.570;2023-08-30T11:51:55;6.13;;;3.90;;
70216;SDS011;65567;55.684;37.570;2023-08-30T11:54:25;7.45;;;4.25;;
70216;SDS011;65567;55.684;37.570;2023-08-30T11:56:52;6.53;;;3.83;;
70216;SDS011;65567;55.684;37.570;2023-08-30T11:59:19;6.57;;;3.78;;
70216;SDS011;65567;55.684;37.570;2023-08-30T12:01:56;6.07;;;3.90;;
70216;SDS011;65567;55.684;37.570;2023-08-30T12:04:25;7.95;;;4.15;;
70216;SDS011;65567;55.684;37.570;2023-08-30T12:06:53;7.32;;;4.35;;
70216;SDS011;65567;55.684;37.570;2023-08-30T12:09:19;6.05;;;4.20;;
70216;SDS011;65567;55.684;37.570;2023-08-30T12:11:48;8.52;;;4.68;;
70216;SDS011;65567;55.684;37.570;2023-08-30T12:14:14;9.77;;;4.40;;
70216;SDS011;65567;55.684;37.570;2023-08-30T12:16:40;6.95;;;4.53;;
70216;SDS011;65567;55.684;37.570;2023-08-30T12:19:10;8.98;;;4.75;;
70216;SDS011;65567;55.684;37.570;2023-08-30T12:21:42;9.65;;;4.90;;
70216;SDS011;65567;55.684;37.570;2023-08-30T12:24:08;9.60;;;5.25;;
70216;SDS011;65567;55.684;37.570;2023-08-30T12:26:34;11.73;;;5.10;;
70216;SDS011;65567;55.684;37.570;2023-08-30T12:29:02;8.15;;;4.68;;
70216;SDS011;65567;55.684;37.570;2023-08-30T12:31:28;12.90;;;4.90;;
70216;SDS011;65567;55.684;37.570;2023-08-30T12:33:54;9.60;;;4.97;;
70216;SDS011;65567;55.684;37.570;2023-08-30T12:36:20;11.05;;;4.53;;
70216;SDS011;65567;55.684;37.570;2023-08-30T12:38:46;9.05;;;3.78;;
70216;SDS011;65567;55.684;37.570;2023-08-30T12:41:12;9.13;;;4.85;;
70216;SDS011;65567;55.684;37.570;2023-08-30T12:43:37;10.07;;;4.50;;
70216;SDS011;65567;55.684;37.570;2023-08-30T12:46:03;8.07;;;4.70;;
70216;SDS011;65567;55.684;37.570;2023-08-30T12:48:29;8.48;;;4.50;;
70216;SDS011;65567;55.684;37.570;2023-08-30T12:50:55;6.90;;;4.05;;
70216;SDS011;65567;55.684;37.570;2023-08-30T12:53:21;12.63;;;4.47;;
70216;SDS011;65567;55.684;37.570;2023-08-30T12:55:47;8.63;;;3.63;;
70216;SDS011;65567;55.684;37.570;2023-08-30T12:58:12;10.52;;;3.92;;
70216;SDS011;65567;55.684;37.570;2023-08-30T13:00:39;6.75;;;4.07;;
70216;SDS011;65567;55.684;37.570;2023-08-30T13:03:05;8.50;;;4.22;;
70216;SDS011;65567;55.684;37.570;2023-08-30T13:05:31;8.05;;;3.88;;
70216;SDS011;65567;55.684;37.570;2023-08-30T13:07:57;10.38;;;3.80;;
70216;SDS011;65567;55.684;37.570;2023-08-30T13:10:26;5.75;;;3.45;;
70216;SDS011;65567;55.684;37.570;2023-08-30T13:12:52;6.70;;;3.45;;
70216;SDS011;65567;55.684;37.570;2023-08-30T13:15:18;6.60;;;3.90;;
70216;SDS011;65567;55.684;37.570;2023-08-30T13:17:44;6.03;;;3.90;;
70216;SDS011;65567;55.684;37.570;2023-08-30T13:20:09;7.80;;;3.80;;
70216;SDS011;65567;55.684;37.570;2023-08-30T13:22:36;8.07;;;4.20;;
70216;SDS011;65567;55.684;37.570;2023-08-30T13:25:02;14.25;;;3.97;;
70216;SDS011;65567;55.684;37.570;2023-08-30T13:27:29;6.50;;;3.80;;
70216;SDS011;65567;55.684;37.570;2023-08-30T13:29:55;8.32;;;4.40;;
70216;SDS011;65567;55.684;37.570;2023-08-30T13:32:20;9.10;;;3.97;;
70216;SDS011;65567;55.684;37.570;2023-08-30T13:34:46;12.80;;;4.57;;
70216;SDS011;65567;55.684;37.570;2023-08-30T13:37:12;8.23;;;3.60;;
70216;SDS011;65567;55.684;37.570;2023-08-30T13:39:39;9.70;;;3.92;;
70216;SDS011;65567;55.684;37.570;2023-08-30T13:42:05;7.35;;;3.42;;
70216;SDS011;65567;55.684;37.570;2023-08-30T13:44:30;16.38;;;4.10;;
70216;SDS011;65567;55.684;37.570;2023-08-30T13:46:57;17.25;;;5.10;;
70216;SDS011;65567;55.684;37.570;2023-08-30T13:49:23;8.25;;;3.40;;
70216;SDS011;65567;55.684;37.570;2023-08-30T13:51:48;8.25;;;3.90;;
70216;SDS011;65567;55.684;37.570;2023-08-30T13:54:14;11.68;;;3.92;;
70216;SDS011;65567;55.684;37.570;2023-08-30T13:56:39;19.77;;;4.65;;
70216;SDS011;65567;55.684;37.570;2023-08-30T13:59:06;10.05;;;3.78;;
70216;SDS011;65567;55.684;37.570;2023-08-30T14:01:32;9.30;;;3.90;;
70216;SDS011;65567;55.684;37.570;2023-08-30T14:04:00;9.50;;;3.95;;
70216;SDS011;65567;55.684;37.570;2023-08-30T14:06:25;13.32;;;4.10;;
70216;SDS011;65567;55.684;37.570;2023-08-30T14:08:51;12.23;;;3.67;;
70216;SDS011;65567;55.684;37.570;2023-08-30T14:11:17;10.35;;;4.40;;
70216;SDS011;65567;55.684;37.570;2023-08-30T14:13:43;6.97;;;3.90;;
70216;SDS011;65567;55.684;37.570;2023-08-30T14:16:09;10.43;;;4.05;;
70216;SDS011;65567;55.684;37.570;2023-08-30T14:18:38;7.05;;;3.60;;
70216;SDS011;65567;55.684;37.570;2023-08-30T14:21:04;7.70;;;3.60;;
70216;SDS011;65567;55.684;37.570;2023-08-30T14:23:30;12.60;;;3.95;;
70216;SDS011;65567;55.684;37.570;2023-08-30T14:25:57;10.45;;;4.00;;
70216;SDS011;65567;55.684;37.570;2023-08-30T14:28:26;13.25;;;4.88;;
70216;SDS011;65567;55.684;37.570;2023-08-30T14:30:53;12.43;;;4.15;;
70216;SDS011;65567;55.684;37.570;2023-08-30T14:33:19;10.88;;;3.47;;
70216;SDS011;65567;55.684;37.570;2023-08-30T14:35:45;7.35;;;3.28;;
70216;SDS011;65567;55.684;37.570;2023-08-30T14:38:11;5.03;;;3.17;;
70216;SDS011;65567;55.684;37.570;2023-08-30T14:40:37;7.05;;;3.60;;
70216;SDS011;65567;55.684;37.570;2023-08-30T14:43:05;6.10;;;3.25;;
70216;SDS011;65567;55.684;37.570;2023-08-30T14:45:31;5.90;;;3.45;;